createdAt,value
2023-03-30T00:01:19.475Z,63.70
2023-03-30T00:03:50.223Z,63.70
2023-03-30T00:06:23.326Z,63.70
2023-03-30T00:08:53.574Z,63.90
2023-03-30T00:11:23.748Z,63.80
2023-03-30T00:13:54.920Z,63.90
2023-03-30T00:16:26.040Z,63.60
2023-03-30T00:18:55.929Z,63.60
2023-03-30T00:21:27.074Z,63.70
2023-03-30T00:23:56.802Z,63.80
2023-03-30T00:26:24.166Z,63.70
2023-03-30T00:28:51.451Z,63.70
2023-03-30T00:31:18.893Z,63.60
2023-03-30T00:33:47.508Z,63.80
2023-03-30T00:36:16.503Z,63.50
2023-03-30T00:38:48.406Z,63.70
2023-03-30T00:41:16.374Z,63.80
2023-03-30T00:44:07.392Z,64.40
2023-03-30T00:46:34.803Z,63.90
2023-03-30T00:49:12.272Z,63.80
2023-03-30T00:51:42.592Z,63.90
2023-03-30T00:54:19.168Z,63.90
2023-03-30T00:56:49.200Z,63.80
2023-03-30T00:59:18.794Z,63.80
2023-03-30T01:01:50.480Z,63.80
2023-03-30T01:04:18.851Z,64.00
2023-03-30T01:06:47.124Z,63.80
2023-03-30T01:09:16.528Z,63.70
2023-03-30T01:11:44.190Z,63.80
2023-03-30T01:14:15.527Z,63.80
2023-03-30T01:17:13.673Z,63.80
2023-03-30T01:19:58.957Z,63.90
2023-03-30T01:23:02.365Z,63.60
2023-03-30T01:25:47.892Z,63.80
2023-03-30T01:28:29.954Z,64.00
2023-03-30T01:31:14.897Z,64.10
2023-03-30T01:33:57.919Z,64.10
2023-03-30T01:36:41.728Z,63.80
2023-03-30T01:39:16.935Z,64.10
2023-03-30T01:41:59.098Z,64.00
2023-03-30T01:44:32.557Z,64.00
2023-03-30T01:47:17.658Z,64.20
2023-03-30T01:50:12.880Z,64.30
2023-03-30T01:52:53.894Z,64.30
2023-03-30T01:55:29.373Z,64.20
2023-03-30T01:58:14.674Z,64.10
2023-03-30T02:00:45.147Z,64.10
2023-03-30T02:03:17.473Z,64.10
2023-03-30T02:05:47.085Z,64.60
2023-03-30T02:08:18.953Z,64.00
2023-03-30T02:10:49.590Z,64.10
2023-03-30T02:13:19.225Z,64.20
2023-03-30T02:15:53.152Z,64.10
2023-03-30T02:18:23.528Z,64.30
2023-03-30T02:20:50.947Z,64.30
2023-03-30T02:23:21.456Z,64.20
2023-03-30T02:25:49.492Z,64.20
2023-03-30T02:28:17.107Z,64.10
2023-03-30T02:30:47.152Z,64.10
2023-03-30T02:33:26.062Z,64.30
2023-03-30T02:35:58.777Z,64.50
2023-03-30T02:38:44.329Z,64.40
2023-03-30T02:41:32.717Z,64.40
2023-03-30T02:43:59.959Z,64.10
2023-03-30T02:46:44.574Z,64.30
2023-03-30T02:49:40.724Z,64.60
2023-03-30T02:52:40.048Z,64.30
2023-03-30T02:55:10.586Z,64.60
2023-03-30T02:57:37.917Z,64.50
2023-03-30T03:00:24.038Z,64.30
2023-03-30T03:03:02.582Z,64.50
2023-03-30T03:05:33.968Z,64.50
2023-03-30T03:08:01.587Z,64.40
2023-03-30T03:10:28.836Z,64.50
2023-03-30T03:12:58.498Z,64.80
2023-03-30T03:15:25.813Z,65.00
2023-03-30T03:17:53.170Z,64.80
2023-03-30T03:20:20.521Z,65.60
2023-03-30T03:22:49.904Z,65.00
2023-03-30T03:25:19.609Z,65.00
2023-03-30T03:27:47.319Z,65.10
2023-03-30T03:30:14.786Z,65.00
2023-03-30T03:32:42.088Z,65.20
2023-03-30T03:35:09.959Z,65.20
2023-03-30T03:37:37.247Z,65.10
2023-03-30T03:40:06.543Z,65.20
2023-03-30T03:42:34.066Z,65.40
2023-03-30T03:45:01.361Z,66.10
2023-03-30T03:47:28.833Z,65.40
2023-03-30T03:49:56.160Z,65.50
2023-03-30T03:52:23.652Z,65.50
2023-03-30T03:54:53.369Z,65.40
2023-03-30T03:57:23.069Z,65.30
2023-03-30T03:59:52.097Z,65.30
2023-03-30T04:02:21.250Z,65.40
2023-03-30T04:04:51.778Z,65.40
2023-03-30T04:07:21.685Z,65.30
2023-03-30T04:09:48.932Z,65.30
2023-03-30T04:12:16.257Z,65.20
2023-03-30T04:14:43.657Z,65.10
2023-03-30T04:17:11.797Z,65.10
2023-03-30T04:19:39.495Z,65.20
2023-03-30T04:22:06.948Z,65.20
2023-03-30T04:24:35.572Z,65.20
2023-03-30T04:27:03.333Z,65.10
2023-03-30T04:29:30.831Z,65.00
2023-03-30T04:32:02.962Z,65.00
2023-03-30T04:34:31.047Z,65.00
2023-03-30T04:37:03.923Z,65.00
2023-03-30T04:39:31.377Z,65.20
2023-03-30T04:41:58.681Z,65.10
2023-03-30T04:44:26.103Z,65.10
2023-03-30T04:46:55.305Z,65.10
2023-03-30T04:49:25.800Z,65.20
2023-03-30T04:51:54.683Z,65.20
2023-03-30T04:54:24.216Z,65.10
2023-03-30T04:56:51.639Z,65.10
2023-03-30T04:59:19.023Z,65.20
2023-03-30T05:01:49.330Z,64.70
2023-03-30T05:04:16.663Z,65.00
2023-03-30T05:06:44.322Z,65.10
2023-03-30T05:09:14.373Z,65.10
2023-03-30T05:11:41.701Z,65.20
2023-03-30T05:14:11.746Z,65.10
2023-03-30T05:16:39.102Z,65.20
2023-03-30T05:19:06.509Z,65.20
2023-03-30T05:21:36.126Z,65.20
2023-03-30T05:24:04.135Z,66.00
2023-03-30T05:26:34.855Z,66.10
2023-03-30T05:29:02.415Z,65.60
2023-03-30T05:31:35.036Z,65.60
2023-03-30T05:34:02.771Z,65.80
2023-03-30T05:36:30.103Z,65.80
2023-03-30T05:38:57.423Z,65.90
2023-03-30T05:41:24.927Z,66.10
2023-03-30T05:43:54.496Z,66.00
2023-03-30T05:46:22.821Z,66.00
2023-03-30T05:48:50.290Z,66.10
2023-03-30T05:51:20.017Z,66.10
2023-03-30T05:53:47.446Z,66.20
2023-03-30T05:56:17.672Z,66.20
2023-03-30T05:58:44.979Z,66.00
2023-03-30T06:01:13.427Z,66.10
2023-03-30T06:03:42.201Z,66.30
2023-03-30T06:06:09.994Z,66.20
2023-03-30T06:08:37.365Z,66.20
2023-03-30T06:11:07.921Z,66.30
2023-03-30T06:13:37.307Z,66.60
2023-03-30T06:16:07.988Z,66.70
2023-03-30T06:18:35.299Z,66.70
2023-03-30T06:21:07.197Z,66.60
2023-03-30T06:23:37.214Z,66.50
2023-03-30T06:26:09.723Z,66.50
2023-03-30T06:28:39.228Z,66.60
2023-03-30T06:31:12.479Z,66.50
2023-03-30T06:33:41.692Z,66.40
2023-03-30T06:36:14.952Z,66.40
2023-03-30T06:38:45.340Z,66.50
2023-03-30T06:41:12.911Z,66.30
2023-03-30T06:43:40.363Z,66.40
2023-03-30T06:46:08.248Z,66.30
2023-03-30T06:48:40.147Z,66.20
2023-03-30T06:51:07.729Z,66.20
2023-03-30T06:53:34.998Z,66.60
2023-03-30T06:56:02.283Z,65.90
2023-03-30T06:58:30.673Z,65.90
2023-03-30T07:00:58.100Z,66.20
2023-03-30T07:03:26.568Z,66.70
2023-03-30T07:05:54.030Z,66.00
2023-03-30T07:08:26.748Z,66.10
2023-03-30T07:10:54.047Z,66.20
2023-03-30T07:13:21.766Z,66.30
2023-03-30T07:15:49.002Z,66.30
2023-03-30T07:18:18.875Z,66.40
2023-03-30T07:20:46.822Z,66.40
2023-03-30T07:23:16.647Z,66.50
2023-03-30T07:25:45.756Z,66.60
2023-03-30T07:28:14.058Z,66.60
2023-03-30T07:30:41.640Z,66.60
2023-03-30T07:33:11.623Z,66.60
2023-03-30T07:35:47.022Z,66.60
2023-03-30T07:38:14.993Z,66.80
2023-03-30T07:40:42.450Z,66.90
2023-03-30T07:43:09.720Z,67.00
2023-03-30T07:45:39.525Z,67.20
2023-03-30T07:48:07.003Z,67.30
2023-03-30T07:50:34.699Z,67.20
2023-03-30T07:53:02.006Z,67.30
2023-03-30T07:55:30.047Z,67.30
2023-03-30T07:57:59.965Z,67.40
2023-03-30T08:00:27.927Z,67.40
2023-03-30T08:02:57.837Z,67.50
2023-03-30T08:05:25.138Z,67.50
2023-03-30T08:07:53.016Z,67.60
2023-03-30T08:10:22.510Z,67.40
2023-03-30T08:12:49.884Z,67.40
2023-03-30T08:15:17.228Z,67.50
2023-03-30T08:17:44.604Z,67.60
2023-03-30T08:20:15.939Z,67.70
2023-03-30T08:22:45.775Z,68.50
2023-03-30T08:25:13.170Z,68.00
2023-03-30T08:27:40.472Z,67.80
2023-03-30T08:30:08.365Z,67.90
2023-03-30T08:32:37.919Z,68.10
2023-03-30T08:35:06.403Z,68.10
2023-03-30T08:37:33.662Z,68.30
2023-03-30T08:40:06.445Z,68.40
2023-03-30T08:42:48.930Z,68.60
2023-03-30T08:45:18.801Z,68.70
2023-03-30T08:47:50.485Z,69.10
2023-03-30T08:50:19.239Z,69.30
2023-03-30T08:52:52.181Z,69.00
2023-03-30T08:55:40.689Z,69.20
2023-03-30T08:58:17.549Z,70.00
2023-03-30T09:01:00.110Z,70.00
2023-03-30T09:03:39.269Z,70.00
2023-03-30T09:06:28.482Z,70.10
2023-03-30T09:08:58.708Z,70.30
2023-03-30T09:11:45.698Z,69.90
2023-03-30T09:14:25.840Z,70.40
2023-03-30T09:17:02.520Z,70.20
2023-03-30T09:19:40.441Z,70.20
2023-03-30T09:22:12.993Z,70.30
2023-03-30T09:24:44.981Z,70.20
2023-03-30T09:27:27.749Z,70.30
2023-03-30T09:29:58.319Z,70.70
2023-03-30T09:32:33.157Z,70.60
2023-03-30T09:35:11.056Z,71.10
2023-03-30T09:37:38.453Z,71.20
2023-03-30T09:40:17.744Z,71.30
2023-03-30T09:43:24.095Z,72.30
2023-03-30T09:45:53.801Z,72.50
2023-03-30T09:48:21.294Z,73.10
2023-03-30T09:50:48.638Z,72.60
2023-03-30T09:53:25.139Z,72.70
2023-03-30T09:56:23.034Z,73.10
2023-03-30T09:58:50.574Z,73.30
2023-03-30T10:01:24.253Z,72.80
2023-03-30T10:04:16.506Z,73.10
2023-03-30T10:06:53.513Z,73.70
2023-03-30T10:09:24.081Z,73.10
2023-03-30T10:11:54.550Z,73.20
2023-03-30T10:14:28.781Z,73.00
2023-03-30T10:16:59.041Z,73.10
2023-03-30T10:19:26.765Z,73.10
2023-03-30T10:22:04.314Z,72.80
2023-03-30T10:24:33.303Z,72.60
2023-03-30T10:27:19.676Z,72.40
2023-03-30T10:29:50.789Z,72.60
2023-03-30T10:32:21.796Z,72.10
2023-03-30T10:34:58.372Z,72.20
2023-03-30T10:37:32.404Z,72.30
2023-03-30T10:40:02.405Z,72.10
2023-03-30T10:42:32.927Z,72.10
2023-03-30T10:45:04.402Z,72.30
2023-03-30T10:47:50.787Z,72.20
2023-03-30T10:50:28.110Z,72.50
2023-03-30T10:53:19.651Z,72.30
2023-03-30T10:56:14.538Z,72.50
2023-03-30T10:59:06.866Z,72.60
2023-03-30T11:01:53.152Z,72.50
2023-03-30T11:04:40.264Z,72.30
2023-03-30T11:07:41.737Z,72.70
2023-03-30T11:10:22.192Z,72.70
2023-03-30T11:13:03.084Z,72.60
2023-03-30T11:15:33.482Z,72.50
2023-03-30T11:18:10.719Z,72.20
2023-03-30T11:20:46.039Z,72.70
2023-03-30T11:23:34.778Z,73.10
2023-03-30T11:26:09.853Z,73.60
2023-03-30T11:28:52.968Z,73.60
2023-03-30T11:31:38.292Z,73.30
2023-03-30T11:34:41.226Z,73.50
2023-03-30T11:37:35.413Z,73.60
2023-03-30T11:40:26.833Z,73.50
2023-03-30T11:42:58.629Z,73.00
2023-03-30T11:45:41.361Z,72.30
2023-03-30T11:48:21.173Z,72.30
2023-03-30T11:51:26.819Z,71.70
2023-03-30T11:54:15.095Z,71.70
2023-03-30T11:56:48.175Z,71.60
2023-03-30T11:59:39.795Z,71.50
2023-03-30T12:02:28.261Z,71.50
2023-03-30T12:05:11.289Z,71.70
2023-03-30T12:08:19.356Z,71.70
2023-03-30T12:10:54.915Z,71.60
2023-03-30T12:13:22.176Z,71.40
2023-03-30T12:16:00.675Z,71.40
2023-03-30T12:18:30.986Z,72.00
2023-03-30T12:21:19.029Z,71.80
2023-03-30T12:24:01.104Z,72.10
2023-03-30T12:26:31.037Z,72.00
2023-03-30T12:31:58.843Z,71.80
2023-03-30T12:34:28.300Z,72.10
2023-03-30T12:37:23.539Z,71.50
2023-03-30T12:40:06.754Z,71.70
2023-03-30T12:42:46.357Z,71.50
2023-03-30T12:45:32.112Z,71.50
2023-03-30T12:48:05.433Z,72.00
2023-03-30T12:50:36.211Z,71.50
2023-03-30T12:53:35.798Z,71.90
2023-03-30T12:56:26.453Z,71.50
2023-03-30T12:59:23.550Z,71.30
2023-03-30T13:02:12.334Z,71.20
2023-03-30T13:04:44.057Z,71.10
2023-03-30T13:07:27.420Z,71.20
2023-03-30T13:09:57.883Z,71.50
2023-03-30T13:12:31.509Z,71.50
2023-03-30T13:15:04.410Z,71.40
2023-03-30T13:17:51.059Z,71.40
2023-03-30T13:20:29.893Z,71.60
2023-03-30T13:23:25.001Z,71.30
2023-03-30T13:26:03.480Z,71.60
2023-03-30T13:28:59.388Z,71.50
2023-03-30T13:31:41.432Z,71.70
2023-03-30T13:34:31.102Z,71.40
2023-03-30T13:37:16.789Z,71.60
2023-03-30T13:39:52.801Z,71.20
2023-03-30T13:42:35.140Z,71.40
2023-03-30T13:45:30.837Z,71.50
2023-03-30T13:48:24.865Z,71.60
2023-03-30T13:51:03.083Z,71.60
2023-03-30T13:53:41.822Z,71.90
2023-03-30T13:56:13.411Z,72.40
2023-03-30T13:58:46.337Z,72.80
2023-03-30T14:01:19.197Z,72.60
2023-03-30T14:03:57.623Z,73.90
2023-03-30T14:06:29.948Z,74.70
2023-03-30T14:09:12.377Z,74.70
2023-03-30T14:11:46.978Z,75.10
2023-03-30T14:14:23.146Z,75.10
2023-03-30T14:16:51.394Z,75.30
2023-03-30T14:19:28.168Z,75.10
2023-03-30T14:22:02.195Z,75.20
2023-03-30T14:24:36.514Z,75.40
2023-03-30T14:27:15.803Z,75.40
2023-03-30T14:29:50.199Z,75.40
2023-03-30T14:32:21.481Z,75.60
2023-03-30T14:34:53.768Z,75.70
2023-03-30T14:37:25.813Z,75.80
2023-03-30T14:39:57.464Z,75.80
2023-03-30T14:42:30.979Z,75.90
2023-03-30T14:44:58.465Z,75.80
2023-03-30T14:47:27.888Z,75.90
2023-03-30T14:50:01.982Z,75.90
2023-03-30T14:52:40.931Z,76.10
2023-03-30T14:55:17.572Z,76.10
2023-03-30T14:57:49.708Z,76.10
2023-03-30T15:00:22.832Z,76.00
2023-03-30T15:02:56.976Z,75.90
2023-03-30T15:05:30.257Z,75.80
2023-03-30T15:07:57.629Z,75.70
2023-03-30T15:10:36.809Z,75.60
2023-03-30T15:13:08.195Z,75.50
2023-03-30T15:15:35.861Z,75.40
2023-03-30T15:18:04.611Z,75.30
2023-03-30T15:20:32.512Z,75.40
2023-03-30T15:23:00.782Z,75.10
2023-03-30T15:25:35.180Z,75.00
2023-03-30T15:28:07.021Z,75.50
2023-03-30T15:30:38.447Z,75.10
2023-03-30T15:33:07.483Z,75.20
2023-03-30T15:35:37.163Z,75.20
2023-03-30T15:38:13.304Z,75.30
2023-03-30T15:40:43.050Z,75.30
2023-03-30T15:43:22.336Z,75.30
2023-03-30T15:46:09.079Z,75.20
2023-03-30T15:48:47.041Z,75.30
2023-03-30T15:51:21.138Z,75.30
2023-03-30T15:53:55.633Z,75.40
2023-03-30T15:56:56.444Z,75.50
2023-03-30T15:59:31.972Z,75.60
2023-03-30T16:02:15.129Z,75.60
2023-03-30T16:04:44.984Z,75.70
2023-03-30T16:07:21.328Z,75.80
2023-03-30T16:09:49.220Z,76.00
2023-03-30T16:12:19.967Z,76.00
2023-03-30T16:14:48.208Z,76.20
2023-03-30T16:17:18.074Z,76.30
2023-03-30T16:19:46.107Z,76.40
2023-03-30T16:22:17.960Z,76.50
2023-03-30T16:24:48.340Z,76.70
2023-03-30T16:27:15.668Z,77.00
2023-03-30T16:29:45.929Z,77.00
2023-03-30T16:32:13.191Z,77.30
2023-03-30T16:34:42.928Z,77.50
2023-03-30T16:37:11.395Z,77.50
2023-03-30T16:39:41.116Z,77.70
2023-03-30T16:42:08.372Z,77.80
2023-03-30T16:44:36.436Z,77.90
2023-03-30T16:47:03.896Z,77.90
2023-03-30T16:49:31.234Z,78.60
2023-03-30T16:51:58.591Z,77.90
2023-03-30T16:54:32.625Z,77.80
2023-03-30T16:57:03.520Z,77.70
2023-03-30T16:59:32.889Z,77.60
2023-03-30T17:02:00.371Z,77.40
2023-03-30T17:04:30.063Z,77.40
2023-03-30T17:06:59.888Z,77.50
2023-03-30T17:09:27.207Z,77.50
2023-03-30T17:11:54.445Z,77.50
2023-03-30T17:14:23.269Z,77.60
2023-03-30T17:16:53.191Z,77.60
2023-03-30T17:19:20.560Z,77.70
2023-03-30T17:21:50.355Z,77.70
2023-03-30T17:24:17.682Z,77.70
2023-03-30T17:26:47.469Z,77.60
2023-03-30T17:29:14.861Z,77.50
2023-03-30T17:31:45.875Z,77.50
2023-03-30T17:34:13.925Z,77.50
2023-03-30T17:36:43.399Z,77.40
2023-03-30T17:39:18.189Z,77.30
2023-03-30T17:41:45.474Z,77.20
2023-03-30T17:44:12.793Z,77.20
2023-03-30T17:46:42.864Z,77.10
2023-03-30T17:49:19.561Z,77.10
2023-03-30T17:51:49.689Z,77.70
2023-03-30T17:54:17.044Z,76.80
2023-03-30T17:56:46.803Z,76.70
2023-03-30T17:59:14.155Z,76.70
2023-03-30T18:01:41.585Z,76.40
2023-03-30T18:04:09.269Z,76.20
2023-03-30T18:06:36.720Z,76.00
2023-03-30T18:09:04.105Z,75.80
2023-03-30T18:11:31.375Z,75.80
2023-03-30T18:13:58.654Z,75.70
2023-03-30T18:16:26.327Z,75.60
2023-03-30T18:18:53.714Z,75.70
2023-03-30T18:21:21.239Z,75.60
2023-03-30T18:23:53.061Z,75.60
2023-03-30T18:26:21.282Z,75.50
2023-03-30T18:28:48.575Z,75.50
2023-03-30T18:31:18.778Z,75.30
2023-03-30T18:33:46.075Z,75.30
2023-03-30T18:36:14.720Z,75.10
2023-03-30T18:38:44.346Z,75.10
2023-03-30T18:41:12.946Z,74.90
2023-03-30T18:43:42.551Z,74.70
2023-03-30T18:46:12.605Z,74.30
2023-03-30T18:48:40.098Z,74.20
2023-03-30T18:51:09.547Z,74.10
2023-03-30T18:53:39.336Z,73.90
2023-03-30T18:56:07.263Z,73.80
2023-03-30T18:58:41.517Z,73.70
2023-03-30T19:01:13.392Z,73.60
2023-03-30T19:03:42.143Z,74.10
2023-03-30T19:06:16.497Z,73.40
2023-03-30T19:08:46.462Z,73.30
2023-03-30T19:11:23.337Z,73.30
2023-03-30T19:13:51.519Z,73.10
2023-03-30T19:16:18.954Z,73.10
2023-03-30T19:18:49.501Z,73.10
2023-03-30T19:21:17.857Z,73.00
2023-03-30T19:23:45.430Z,73.60
2023-03-30T19:26:12.933Z,72.90
2023-03-30T19:28:40.565Z,72.80
2023-03-30T19:31:13.184Z,72.80
2023-03-30T19:33:45.599Z,72.70
2023-03-30T19:36:18.369Z,72.70
2023-03-30T19:38:45.938Z,72.70
2023-03-30T19:41:15.707Z,72.70
2023-03-30T19:43:50.122Z,72.40
2023-03-30T19:46:17.506Z,72.30
2023-03-30T19:48:44.966Z,72.30
2023-03-30T19:51:16.805Z,72.20
2023-03-30T19:53:46.314Z,72.10
2023-03-30T19:56:14.253Z,71.90
2023-03-30T19:58:41.607Z,71.80
2023-03-30T20:01:09.420Z,71.60
2023-03-30T20:03:36.912Z,71.40
2023-03-30T20:06:11.165Z,71.40
2023-03-30T20:08:40.128Z,71.60
2023-03-30T20:11:10.872Z,71.60
2023-03-30T20:13:38.518Z,71.70
2023-03-30T20:16:11.942Z,71.70
2023-03-30T20:18:47.432Z,71.50
2023-03-30T20:21:14.739Z,71.30
2023-03-30T20:23:44.418Z,70.90
2023-03-30T20:26:12.474Z,70.90
2023-03-30T20:28:40.637Z,70.80
2023-03-30T20:31:11.868Z,70.70
2023-03-30T20:33:39.468Z,70.60
2023-03-30T20:36:07.908Z,70.60
2023-03-30T20:38:39.690Z,70.70
2023-03-30T20:41:11.545Z,70.70
2023-03-30T20:43:55.772Z,70.60
2023-03-30T20:46:35.348Z,70.70
2023-03-30T20:49:05.056Z,70.50
2023-03-30T20:51:40.072Z,70.40
2023-03-30T20:54:07.660Z,70.40
2023-03-30T20:56:34.977Z,70.30
2023-03-30T20:59:02.376Z,70.10
2023-03-30T21:01:34.191Z,70.10
2023-03-30T21:04:02.642Z,70.20
2023-03-30T21:06:31.615Z,70.30
2023-03-30T21:09:01.385Z,70.10
2023-03-30T21:11:30.239Z,70.00
2023-03-30T21:14:01.546Z,70.10
2023-03-30T21:16:31.352Z,70.30
2023-03-30T21:18:58.977Z,70.30
2023-03-30T21:21:28.381Z,70.30
2023-03-30T21:23:58.124Z,70.30
2023-03-30T21:26:26.317Z,70.10
2023-03-30T21:28:53.722Z,70.20
2023-03-30T21:31:21.087Z,70.20
2023-03-30T21:33:48.463Z,70.10
2023-03-30T21:36:16.068Z,70.10
2023-03-30T21:38:43.561Z,70.20
2023-03-30T21:41:16.442Z,70.10
2023-03-30T21:43:45.966Z,69.90
2023-03-30T21:46:16.721Z,70.00
2023-03-30T21:48:48.041Z,70.10
2023-03-30T21:51:21.638Z,70.10
2023-03-30T21:53:51.185Z,70.10
2023-03-30T21:56:22.286Z,70.00
2023-03-30T21:58:50.671Z,70.20
2023-03-30T22:01:20.073Z,70.30
2023-03-30T22:03:47.644Z,70.30
2023-03-30T22:06:17.441Z,70.30
2023-03-30T22:08:47.975Z,70.30
2023-03-30T22:11:17.776Z,70.30
2023-03-30T22:13:47.474Z,70.20
2023-03-30T22:16:22.386Z,70.30
2023-03-30T22:18:50.818Z,70.30
2023-03-30T22:21:29.270Z,70.50
2023-03-30T22:24:00.915Z,70.50
2023-03-30T22:26:30.473Z,70.60
2023-03-30T22:29:00.574Z,70.60
2023-03-30T22:31:28.419Z,70.40
2023-03-30T22:33:56.402Z,70.40
2023-03-30T22:36:26.367Z,70.50
2023-03-30T22:38:58.046Z,70.50
2023-03-30T22:41:26.549Z,70.40
2023-03-30T22:43:56.181Z,70.40
2023-03-30T22:46:25.031Z,69.90
2023-03-30T22:48:55.731Z,69.70
2023-03-30T22:51:27.233Z,69.70
2023-03-30T22:53:58.725Z,69.80
2023-03-30T22:56:29.531Z,69.80
2023-03-30T22:58:57.274Z,69.80
2023-03-30T23:01:24.809Z,69.90
2023-03-30T23:03:53.360Z,69.80
2023-03-30T23:06:21.515Z,69.70
2023-03-30T23:08:49.218Z,69.80
2023-03-30T23:11:17.082Z,69.70
2023-03-30T23:13:44.497Z,69.60
2023-03-30T23:16:11.809Z,69.70
2023-03-30T23:18:39.704Z,69.70
2023-03-30T23:21:11.286Z,69.80
2023-03-30T23:23:38.620Z,69.80
2023-03-30T23:26:09.144Z,69.90
2023-03-30T23:28:42.035Z,69.80
2023-03-30T23:31:12.325Z,69.80
2023-03-30T23:33:41.105Z,69.90
2023-03-30T23:36:10.091Z,69.90
2023-03-30T23:38:42.991Z,70.00
2023-03-30T23:41:13.496Z,70.00
2023-03-30T23:43:43.647Z,70.10
2023-03-30T23:46:11.691Z,70.10
2023-03-30T23:48:39.870Z,70.20
2023-03-30T23:51:07.835Z,70.30
2023-03-30T23:53:39.888Z,70.40
2023-03-30T23:56:12.974Z,70.50
2023-03-30T23:58:41.138Z,70.60
